createdAt,value
2019-06-07T00:00:29.648Z,99.90
2019-06-07T00:02:39.975Z,99.90
2019-06-07T00:05:10.067Z,99.90
2019-06-07T00:07:39.501Z,99.90
2019-06-07T00:10:09.440Z,99.90
2019-06-07T00:12:38.325Z,99.90
2019-06-07T00:15:11.703Z,99.90
2019-06-07T00:17:37.553Z,99.90
2019-06-07T00:20:09.366Z,99.90
2019-06-07T00:22:38.589Z,99.90
2019-06-07T00:25:13.388Z,99.90
2019-06-07T00:27:41.104Z,99.90
2019-06-07T00:32:41.486Z,99.90
2019-06-07T00:35:11.951Z,99.90
2019-06-07T00:37:40.627Z,99.90
2019-06-07T00:40:17.388Z,99.90
2019-06-07T00:42:39.547Z,99.90
2019-06-07T00:45:10.913Z,99.90
2019-06-07T00:47:39.242Z,99.90
2019-06-07T00:50:08.505Z,99.90
2019-06-07T00:55:08.358Z,99.90
2019-06-07T00:57:37.272Z,99.90
2019-06-07T01:00:08.338Z,99.90
2019-06-07T01:02:36.780Z,99.90
2019-06-07T01:05:07.011Z,99.90
2019-06-07T01:07:35.540Z,99.90
2019-06-07T01:10:06.852Z,99.90
2019-06-07T01:12:35.351Z,99.90
2019-06-07T01:15:06.975Z,99.90
2019-06-07T01:17:59.679Z,99.90
2019-06-07T01:20:09.974Z,99.90
2019-06-07T01:22:38.460Z,99.90
2019-06-07T01:25:07.929Z,99.90
2019-06-07T01:27:36.434Z,99.90
2019-06-07T01:30:16.317Z,99.90
2019-06-07T01:32:44.838Z,99.90
2019-06-07T01:35:13.710Z,99.90
2019-06-07T01:37:42.182Z,99.90
2019-06-07T01:40:11.260Z,99.90
2019-06-07T01:42:39.800Z,99.90
2019-06-07T01:45:10.508Z,99.90
2019-06-07T01:47:39.022Z,99.90
2019-06-07T01:50:09.550Z,99.90
2019-06-07T01:52:38.016Z,99.90
2019-06-07T01:55:07.084Z,99.90
2019-06-07T01:57:47.444Z,99.90
2019-06-07T02:56:57.967Z,99.90
2019-06-07T02:59:42.151Z,99.90
2019-06-07T03:01:50.610Z,99.90
2019-06-07T03:04:19.903Z,99.90
2019-06-07T03:06:50.584Z,99.90
2019-06-07T03:09:19.839Z,99.90
2019-06-07T03:11:51.844Z,99.90
2019-06-07T03:14:22.409Z,99.90
2019-06-07T03:16:53.633Z,99.90
2019-06-07T03:19:37.836Z,99.90
2019-06-07T03:22:05.342Z,99.90
2019-06-07T03:24:41.077Z,99.90
2019-06-07T03:29:36.802Z,99.90
2019-06-07T03:32:05.495Z,99.90
2019-06-07T03:34:40.493Z,99.90
2019-06-07T03:37:04.538Z,99.90
2019-06-07T03:39:33.765Z,99.90
2019-06-07T03:42:06.678Z,99.90
2019-06-07T03:44:37.814Z,99.90
2019-06-07T03:47:04.377Z,99.90
2019-06-07T03:49:37.582Z,99.90
2019-06-07T03:52:03.503Z,99.90
2019-06-07T03:54:34.678Z,99.90
2019-06-07T03:57:02.541Z,99.90
2019-06-07T03:59:35.605Z,99.90
2019-06-07T04:02:01.553Z,99.90
2019-06-07T04:04:32.275Z,99.90
2019-06-07T04:07:01.256Z,99.90
2019-06-07T04:09:33.736Z,99.90
2019-06-07T04:12:00.366Z,99.90
2019-06-07T04:14:29.729Z,99.90
2019-06-07T04:16:59.442Z,99.90
2019-06-07T04:19:28.868Z,99.90
2019-06-07T04:21:58.275Z,99.90
2019-06-07T04:24:28.525Z,99.90
2019-06-07T04:26:57.498Z,99.90
2019-06-07T04:29:33.330Z,99.90
2019-06-07T04:31:56.510Z,99.90
2019-06-07T04:34:25.156Z,99.90
2019-06-07T04:36:59.282Z,99.90
2019-06-07T04:39:25.685Z,99.90
2019-06-07T04:41:56.894Z,99.90
2019-06-07T04:44:25.901Z,99.90
2019-06-07T04:46:57.304Z,99.90
2019-06-07T04:49:29.726Z,99.90
2019-06-07T04:51:57.717Z,99.90
2019-06-07T04:54:26.614Z,99.90
2019-06-07T04:56:55.364Z,99.90
2019-06-07T05:00:00.848Z,99.90
2019-06-07T05:01:54.399Z,99.90
2019-06-07T05:04:23.138Z,99.90
2019-06-07T05:06:51.826Z,99.90
2019-06-07T05:09:20.512Z,99.90
2019-06-07T05:11:49.298Z,99.90
2019-06-07T05:14:17.982Z,99.90
2019-06-07T05:16:46.674Z,99.90
2019-06-07T05:19:15.317Z,99.90
2019-06-07T05:22:02.813Z,99.90
2019-06-07T05:24:14.347Z,99.90
2019-06-07T05:26:43.124Z,99.90
2019-06-07T05:29:11.757Z,99.90
2019-06-07T05:31:44.972Z,99.90
2019-06-07T05:34:11.491Z,99.90
2019-06-07T05:36:44.673Z,99.90
2019-06-07T05:39:10.609Z,99.90
2019-06-07T05:41:42.335Z,99.90
2019-06-07T05:44:13.097Z,99.90
2019-06-07T05:46:41.902Z,99.90
2019-06-07T05:49:10.736Z,99.90
2019-06-07T05:51:41.887Z,99.90
2019-06-07T05:54:09.736Z,99.90
2019-06-07T05:56:39.462Z,99.90
2019-06-07T05:59:08.810Z,99.90
2019-06-07T06:01:46.114Z,99.90
2019-06-07T06:04:07.865Z,99.90
2019-06-07T06:06:37.033Z,99.90
2019-06-07T06:09:13.831Z,99.90
2019-06-07T06:11:49.288Z,99.90
2019-06-07T06:14:08.527Z,99.90
2019-06-07T06:16:39.542Z,99.90
2019-06-07T06:19:07.862Z,99.90
2019-06-07T06:21:38.195Z,99.90
2019-06-07T06:24:07.202Z,99.90
2019-06-07T06:26:38.358Z,99.90
2019-06-07T06:29:07.634Z,99.90
2019-06-07T06:31:37.891Z,99.90
2019-06-07T06:34:06.714Z,99.90
2019-06-07T06:36:37.242Z,99.90
2019-06-07T06:39:07.811Z,99.90
2019-06-07T06:41:49.410Z,99.90
2019-06-07T06:44:07.080Z,99.90
2019-06-07T06:46:41.152Z,99.90
2019-06-07T06:49:06.138Z,99.90
2019-06-07T06:51:34.825Z,99.90
2019-06-07T06:54:03.513Z,99.90
2019-06-07T06:56:32.247Z,99.90
2019-06-07T06:59:34.586Z,99.90
2019-06-07T07:01:31.607Z,99.90
2019-06-07T07:04:12.436Z,99.90
2019-06-07T07:06:32.707Z,99.90
2019-06-07T07:09:01.892Z,99.90
2019-06-07T07:11:30.618Z,99.90
2019-06-07T07:13:59.410Z,99.90
2019-06-07T07:16:28.103Z,99.90
2019-06-07T07:18:56.989Z,99.90
2019-06-07T07:21:25.679Z,99.90
2019-06-07T07:24:19.698Z,99.90
2019-06-07T07:26:24.742Z,99.90
2019-06-07T07:28:57.138Z,99.90
2019-06-07T07:31:23.841Z,99.90
2019-06-07T07:34:29.327Z,99.90
2019-06-07T07:36:38.038Z,99.90
2019-06-07T07:39:00.478Z,99.90
2019-06-07T07:41:23.804Z,99.90
2019-06-07T07:44:04.295Z,99.90
2019-06-07T07:46:30.436Z,99.90
2019-06-07T07:48:54.686Z,99.90
2019-06-07T07:51:23.679Z,99.90
2019-06-07T07:54:05.806Z,99.90
2019-06-07T07:56:23.242Z,99.90
2019-06-07T07:59:00.079Z,99.90
2019-06-07T08:01:22.567Z,99.90
2019-06-07T08:03:54.924Z,99.90
2019-06-07T08:06:21.763Z,99.90
2019-06-07T08:08:51.315Z,99.90
2019-06-07T08:11:20.246Z,99.90
2019-06-07T08:13:50.507Z,99.90
2019-06-07T08:16:19.282Z,99.90
2019-06-07T08:18:51.018Z,99.90
2019-06-07T08:21:25.369Z,99.90
2019-06-07T08:23:51.649Z,99.90
2019-06-07T08:26:19.555Z,99.90
2019-06-07T08:28:50.888Z,99.90
2019-06-07T08:31:18.666Z,99.90
2019-06-07T08:33:47.799Z,99.90
2019-06-07T08:36:25.141Z,99.90
2019-06-07T08:38:50.910Z,99.90
2019-06-07T08:41:17.676Z,99.90
2019-06-07T08:43:46.361Z,99.90
2019-06-07T08:46:14.973Z,99.90
2019-06-07T08:48:43.732Z,99.90
2019-06-07T08:51:12.413Z,99.90
2019-06-07T08:53:41.096Z,99.90
2019-06-07T08:56:11.353Z,99.90
2019-06-07T08:58:40.103Z,99.90
2019-06-07T09:57:48.642Z,99.90
2019-06-07T10:02:48.208Z,99.90
2019-06-07T10:05:16.895Z,99.90
2019-06-07T10:07:59.913Z,99.90
2019-06-07T10:12:46.994Z,99.90
2019-06-07T10:15:15.777Z,99.90
2019-06-07T10:17:44.535Z,99.90
2019-06-07T10:20:14.120Z,99.90
2019-06-07T10:22:42.813Z,99.90
2019-06-07T10:25:11.803Z,99.90
2019-06-07T10:27:40.813Z,99.90
2019-06-07T10:30:11.529Z,99.90
2019-06-07T10:32:40.244Z,99.90
2019-06-07T10:35:10.217Z,99.90
2019-06-07T10:37:39.888Z,99.90
2019-06-07T10:40:09.470Z,99.90
2019-06-07T10:42:38.231Z,99.90
2019-06-07T10:45:08.229Z,99.90
2019-06-07T10:47:37.862Z,99.90
2019-06-07T10:50:08.044Z,99.90
2019-06-07T10:52:36.846Z,99.90
2019-06-07T10:55:06.707Z,99.90
2019-06-07T10:57:35.504Z,99.90
2019-06-07T11:00:11.496Z,99.90
2019-06-07T11:02:40.371Z,99.90
2019-06-07T11:05:10.206Z,99.90
2019-06-07T11:07:38.942Z,99.90
2019-06-07T11:10:13.335Z,99.90
2019-06-07T11:12:38.990Z,99.90
2019-06-07T11:15:08.835Z,99.90
2019-06-07T11:17:37.727Z,99.90
2019-06-07T11:20:08.187Z,99.90
2019-06-07T11:22:37.103Z,99.90
2019-06-07T11:25:08.666Z,99.90
2019-06-07T11:27:37.126Z,99.90
2019-06-07T11:30:08.409Z,99.90
2019-06-07T11:32:37.855Z,99.90
2019-06-07T11:35:08.511Z,99.90
2019-06-07T11:37:37.239Z,99.90
2019-06-07T11:40:24.014Z,99.90
2019-06-07T11:42:38.554Z,99.90
2019-06-07T11:45:08.114Z,99.90
2019-06-07T11:47:37.450Z,99.90
2019-06-07T11:50:09.483Z,99.90
2019-06-07T11:52:39.868Z,99.90
2019-06-07T11:55:10.933Z,99.90
2019-06-07T11:57:40.038Z,99.90
2019-06-07T12:00:16.860Z,99.90
2019-06-07T12:02:47.060Z,99.90
2019-06-07T12:05:18.377Z,99.90
2019-06-07T12:07:47.036Z,99.90
2019-06-07T12:10:20.747Z,99.90
2019-06-07T12:12:46.768Z,99.90
2019-06-07T12:15:17.339Z,99.90
2019-06-07T12:17:46.413Z,99.90
2019-06-07T12:20:18.584Z,99.90
2019-06-07T12:22:47.487Z,99.90
2019-06-07T12:25:21.146Z,99.90
2019-06-07T12:27:47.950Z,99.90
2019-06-07T12:30:25.397Z,99.90
2019-06-07T12:32:47.394Z,99.90
2019-06-07T12:35:17.609Z,99.90
2019-06-07T12:37:46.778Z,99.90
2019-06-07T12:40:26.433Z,99.90
2019-06-07T12:42:47.118Z,99.90
2019-06-07T12:45:36.706Z,99.90
2019-06-07T12:47:47.883Z,99.90
2019-06-07T12:50:17.495Z,99.90
2019-06-07T12:52:46.279Z,99.90
2019-06-07T12:55:16.067Z,99.90
2019-06-07T12:57:45.450Z,99.90
2019-06-07T13:00:16.100Z,99.90
2019-06-07T13:02:44.838Z,99.90
2019-06-07T13:05:15.244Z,99.90
2019-06-07T13:07:44.353Z,99.90
2019-06-07T13:10:13.812Z,99.90
2019-06-07T13:12:44.074Z,99.90
2019-06-07T13:15:16.054Z,99.90
2019-06-07T13:17:43.512Z,99.90
2019-06-07T13:20:14.103Z,99.90
2019-06-07T13:22:43.146Z,99.90
2019-06-07T13:25:12.434Z,99.90
2019-06-07T13:27:41.161Z,99.90
2019-06-07T13:30:11.052Z,99.90
2019-06-07T13:32:39.961Z,99.90
2019-06-07T13:35:09.547Z,99.90
2019-06-07T13:37:38.508Z,99.90
2019-06-07T13:40:07.800Z,99.90
2019-06-07T13:42:37.620Z,99.90
2019-06-07T13:45:07.798Z,99.90
2019-06-07T13:47:36.481Z,99.90
2019-06-07T13:55:04.514Z,99.90
2019-06-07T13:57:33.513Z,99.90
2019-06-07T14:00:10.417Z,99.90
2019-06-07T14:02:34.334Z,99.90
2019-06-07T14:05:03.323Z,99.90
2019-06-07T14:07:32.035Z,99.90
2019-06-07T14:10:00.727Z,99.90
2019-06-07T14:12:29.738Z,99.90
2019-06-07T14:14:58.734Z,99.90
2019-06-07T14:17:28.331Z,99.90
2019-06-07T14:19:57.769Z,99.90
2019-06-07T14:22:26.857Z,99.90
2019-06-07T14:24:55.608Z,99.90
2019-06-07T14:27:25.479Z,99.90
2019-06-07T14:29:54.277Z,99.90
2019-06-07T14:32:24.843Z,99.90
2019-06-07T14:34:53.637Z,99.90
2019-06-07T14:37:22.913Z,99.90
2019-06-07T14:39:51.706Z,99.90
2019-06-07T14:42:20.703Z,99.90
2019-06-07T14:44:49.410Z,99.20
2019-06-07T14:47:18.459Z,99.80
2019-06-07T14:49:47.864Z,98.40
2019-06-07T14:52:16.724Z,97.60
2019-06-07T14:54:45.661Z,97.20
2019-06-07T14:57:17.426Z,98.30
2019-06-07T14:59:46.618Z,97.60
2019-06-07T15:02:17.710Z,96.10
2019-06-07T15:04:47.580Z,96.00
2019-06-07T15:07:16.707Z,94.60
2019-06-07T15:09:45.683Z,93.60
2019-06-07T15:12:24.517Z,96.10
2019-06-07T15:14:45.148Z,94.40
2019-06-07T15:17:13.835Z,94.30
2019-06-07T15:19:42.561Z,93.40
2019-06-07T15:22:11.697Z,93.70
2019-06-07T15:24:40.685Z,93.60
2019-06-07T15:27:09.784Z,93.20
2019-06-07T15:29:41.022Z,92.80
2019-06-07T15:32:10.854Z,93.10
2019-06-07T15:34:39.543Z,92.10
2019-06-07T15:37:08.649Z,92.40
2019-06-07T15:39:38.789Z,91.30
2019-06-07T15:42:07.514Z,92.10
2019-06-07T15:44:37.340Z,92.40
2019-06-07T15:47:06.460Z,91.60
2019-06-07T15:49:36.158Z,92.30
2019-06-07T15:52:05.477Z,92.60
2019-06-07T15:54:34.380Z,92.30
2019-06-07T15:57:03.267Z,91.10
2019-06-07T15:59:33.195Z,91.90
2019-06-07T16:02:06.770Z,91.30
2019-06-07T16:04:35.624Z,92.70
2019-06-07T16:07:04.563Z,92.50
2019-06-07T16:09:34.339Z,93.50
2019-06-07T16:12:03.054Z,94.50
2019-06-07T16:14:33.054Z,94.50
2019-06-07T16:17:01.930Z,95.40
2019-06-07T16:19:30.896Z,95.60
2019-06-07T16:21:59.610Z,96.40
2019-06-07T16:24:28.222Z,95.80
2019-06-07T16:26:57.267Z,95.50
2019-06-07T16:29:26.235Z,94.90
2019-06-07T16:31:55.280Z,94.90
2019-06-07T16:34:24.262Z,95.50
2019-06-07T16:36:52.994Z,95.90
2019-06-07T16:39:21.665Z,96.20
2019-06-07T16:41:50.280Z,94.70
2019-06-07T16:44:19.332Z,94.50
2019-06-07T16:46:49.111Z,95.50
2019-06-07T16:49:18.253Z,95.30
2019-06-07T16:51:47.248Z,95.70
2019-06-07T16:54:15.925Z,96.40
2019-06-07T16:56:48.102Z,96.20
2019-06-07T16:59:15.663Z,96.90
2019-06-07T17:01:45.326Z,96.90
2019-06-07T17:04:14.405Z,98.30
2019-06-07T17:06:43.709Z,97.60
2019-06-07T17:09:12.402Z,97.80
2019-06-07T17:11:42.283Z,98.40
2019-06-07T17:14:11.252Z,97.80
2019-06-07T17:16:40.873Z,98.00
2019-06-07T17:19:10.210Z,98.00
2019-06-07T17:21:39.269Z,97.50
2019-06-07T17:24:08.293Z,96.40
2019-06-07T17:26:36.973Z,94.40
2019-06-07T17:29:05.757Z,94.80
2019-06-07T17:31:34.440Z,94.10
2019-06-07T17:34:03.126Z,94.00
2019-06-07T17:36:31.846Z,93.40
2019-06-07T17:39:00.546Z,93.50
2019-06-07T17:41:29.221Z,94.10
2019-06-07T17:44:00.436Z,95.40
2019-06-07T17:46:28.578Z,96.50
2019-06-07T17:48:57.187Z,97.40
2019-06-07T17:51:25.914Z,98.20
2019-06-07T17:53:54.693Z,98.90
2019-06-07T17:56:23.375Z,99.10
2019-06-07T17:58:52.422Z,98.70
2019-06-07T18:01:21.166Z,98.70
2019-06-07T18:03:51.170Z,97.40
2019-06-07T18:06:20.362Z,97.60
2019-06-07T18:08:49.945Z,97.80
2019-06-07T18:11:18.626Z,97.50
2019-06-07T18:13:48.222Z,97.60
2019-06-07T18:16:17.794Z,97.10
2019-06-07T18:18:46.626Z,97.30
2019-06-07T18:21:15.394Z,96.80
2019-06-07T18:23:44.380Z,96.70
2019-06-07T18:26:13.053Z,96.60
2019-06-07T18:28:41.716Z,96.30
2019-06-07T18:31:10.425Z,96.30
2019-06-07T18:33:39.038Z,96.40
2019-06-07T18:36:07.753Z,96.60
2019-06-07T18:38:36.776Z,97.20
2019-06-07T18:41:05.454Z,97.80
2019-06-07T18:43:34.182Z,97.20
2019-06-07T18:46:02.861Z,97.40
2019-06-07T18:48:31.549Z,97.70
2019-06-07T18:51:00.421Z,98.00
2019-06-07T18:53:29.423Z,97.40
2019-06-07T18:55:58.175Z,97.30
2019-06-07T18:58:26.919Z,97.40
2019-06-07T19:00:55.678Z,97.50
2019-06-07T19:03:24.370Z,97.40
2019-06-07T19:05:54.183Z,97.80
2019-06-07T19:08:23.126Z,97.70
2019-06-07T19:10:52.624Z,97.60
2019-06-07T19:13:21.350Z,97.70
2019-06-07T19:15:51.190Z,97.70
2019-06-07T19:18:20.102Z,98.10
2019-06-07T19:20:50.619Z,98.10
2019-06-07T19:23:19.174Z,98.80
2019-06-07T19:25:47.862Z,98.60
2019-06-07T19:28:16.941Z,98.80
2019-06-07T19:30:45.621Z,98.90
2019-06-07T19:33:14.316Z,99.20
2019-06-07T19:35:43.047Z,99.50
2019-06-07T19:38:11.707Z,99.60
2019-06-07T19:40:41.136Z,99.90
2019-06-07T19:43:09.819Z,99.90
2019-06-07T19:45:38.602Z,99.90
2019-06-07T19:48:07.667Z,99.90
2019-06-07T19:50:36.382Z,99.90
2019-06-07T19:53:05.275Z,99.90
2019-06-07T19:55:34.252Z,99.90
2019-06-07T19:58:04.065Z,99.90
2019-06-07T20:00:32.892Z,99.90
2019-06-07T20:03:02.257Z,99.90
2019-06-07T20:05:33.856Z,99.90
2019-06-07T20:08:02.747Z,99.90
2019-06-07T20:10:31.644Z,99.90
2019-06-07T20:13:00.815Z,99.90
2019-06-07T20:15:29.880Z,99.90
2019-06-07T20:17:59.242Z,99.90
2019-06-07T20:20:29.961Z,99.90
2019-06-07T20:23:00.960Z,99.90
2019-06-07T20:25:28.694Z,99.90
2019-06-07T20:27:57.405Z,99.90
2019-06-07T20:30:26.421Z,99.90
2019-06-07T20:32:55.101Z,99.90
2019-06-07T20:35:23.882Z,99.90
2019-06-07T20:37:52.779Z,99.90
2019-06-07T20:40:24.644Z,99.90
2019-06-07T20:42:52.558Z,99.90
2019-06-07T20:45:33.290Z,99.90
2019-06-07T20:47:52.233Z,99.90
2019-06-07T20:50:21.210Z,99.90
2019-06-07T20:52:49.898Z,99.90
2019-06-07T20:55:18.786Z,99.90
2019-06-07T20:57:47.506Z,99.90
2019-06-07T21:00:22.111Z,99.90
2019-06-07T21:02:48.320Z,99.90
2019-06-07T21:05:17.038Z,99.90
2019-06-07T21:07:45.787Z,99.90
2019-06-07T21:10:14.645Z,99.90
2019-06-07T21:12:43.459Z,99.90
2019-06-07T21:15:14.461Z,99.90
2019-06-07T21:17:42.696Z,99.90
2019-06-07T21:20:14.162Z,99.90
2019-06-07T21:22:42.080Z,99.90
2019-06-07T21:25:11.713Z,99.90
2019-06-07T21:27:40.786Z,99.90
2019-06-07T21:30:09.888Z,99.90
2019-06-07T21:32:38.851Z,99.90
2019-06-07T21:35:08.310Z,99.90
2019-06-07T21:37:37.010Z,99.90
2019-06-07T21:40:06.307Z,99.90
2019-06-07T21:42:35.047Z,99.90
2019-06-07T21:45:06.266Z,99.90
2019-06-07T21:47:35.166Z,99.90
2019-06-07T21:50:06.617Z,99.90
2019-06-07T21:52:35.365Z,99.90
2019-06-07T21:55:06.949Z,99.90
2019-06-07T21:57:36.284Z,99.90
2019-06-07T22:00:13.511Z,99.90
2019-06-07T22:02:42.877Z,99.90
2019-06-07T22:05:12.235Z,99.90
2019-06-07T22:07:40.924Z,99.90
2019-06-07T22:10:10.206Z,99.90
2019-06-07T22:12:38.919Z,99.90
2019-06-07T22:15:28.458Z,99.90
2019-06-07T22:17:39.679Z,99.90
2019-06-07T22:20:08.790Z,99.90
2019-06-07T22:22:37.570Z,99.90
2019-06-07T22:25:09.241Z,99.90
2019-06-07T22:27:38.139Z,99.90
2019-06-07T22:30:08.450Z,99.90
2019-06-07T22:32:37.656Z,99.90
2019-06-07T22:35:08.943Z,99.90
2019-06-07T22:37:37.895Z,99.90
2019-06-07T22:40:08.620Z,99.90
2019-06-07T22:42:37.789Z,99.90
2019-06-07T22:45:10.987Z,99.90
2019-06-07T22:47:39.792Z,99.90
2019-06-07T22:50:10.678Z,99.90
2019-06-07T22:52:39.596Z,99.90
2019-06-07T22:55:10.128Z,99.90
2019-06-07T22:57:52.624Z,99.90
2019-06-07T23:00:21.391Z,99.90
2019-06-07T23:02:50.429Z,99.90
2019-06-07T23:05:19.419Z,99.90
2019-06-07T23:07:48.103Z,99.90
2019-06-07T23:10:17.690Z,99.90
2019-06-07T23:12:46.393Z,99.90
2019-06-07T23:15:15.500Z,99.90
2019-06-07T23:17:44.182Z,99.90
2019-06-07T23:20:13.815Z,99.90
2019-06-07T23:22:43.670Z,99.90
2019-06-07T23:25:12.591Z,99.90
2019-06-07T23:27:41.313Z,99.90
2019-06-07T23:30:10.750Z,99.90
2019-06-07T23:32:39.815Z,99.90
2019-06-07T23:35:08.525Z,99.90
2019-06-07T23:37:37.205Z,99.90
2019-06-07T23:40:07.092Z,99.90
2019-06-07T23:42:35.857Z,99.90
2019-06-07T23:45:05.185Z,99.90
2019-06-07T23:47:34.128Z,99.90
2019-06-07T23:50:04.063Z,99.90
2019-06-07T23:52:32.750Z,99.90
2019-06-07T23:55:01.691Z,99.90
2019-06-07T23:57:30.455Z,99.90
2019-06-07T23:59:59.140Z,99.90
